Time;durP1;ratioP1;P1;durP2;ratioP2;P2;SDS_P1;SDS_P2;PMS_P1;PMS_P2;Temp;Humidity;BMP_temperature;BMP_pressure;BME280_temperature;BME280_humidity;BME280_pressure;Samples;Min_cycle;Max_cycle;Signal;HPM_P1;HPM_P2
2024/02/01 00:01:26;;;;;;;;;;;;;;;8.14;61.73;99673.85;67542;1282;1016447;-72
2024/02/01 00:04:29;;;;;;;;;;;;;;;8.17;61.59;99674.23;67517;1282;1017093;-72
2024/02/01 00:07:31;;;;;;;;;;;;;;;8.15;61.92;99674.30;67508;1282;1015797;-72
2024/02/01 00:10:34;;;;;;;;;;;;;;;8.21;61.63;99671.48;67549;1282;1016243;-72
2024/02/01 00:13:36;;;;;;;;;;;;;;;8.27;60.95;99664.25;67564;1282;1016379;-71
2024/02/01 00:16:39;;;;;;;;;;;;;;;8.41;60.44;99661.65;67517;1282;1017695;-72
2024/02/01 00:19:41;;;;;;;;;;;;;;;8.45;60.08;99655.76;67512;1282;1016479;-72
2024/02/01 00:22:44;;;;;;;;;;;;;;;8.43;59.85;99657.73;67564;1282;1017425;-71
2024/02/01 00:25:46;;;;;;;;;;;;;;;8.19;60.95;99655.84;67544;1282;1016388;-72
2024/02/01 00:28:49;;;;;;;;;;;;;;;8.30;60.39;99644.45;67540;1282;1015913;-72
2024/02/01 00:31:51;;;;;;;;;;;;;;;8.36;60.11;99636.93;67498;1282;1016456;-71
2024/02/01 00:34:54;;;;;;;;;;;;;;;8.40;59.54;99628.05;67536;1282;1016315;-72
2024/02/01 00:37:56;;;;;;;;;;;;;;;8.35;59.69;99625.95;67542;1282;1018048;-71
2024/02/01 00:40:59;;;;;;;;;;;;;;;7.84;61.76;99624.41;67535;1282;1016369;-70
2024/02/01 00:44:01;;;;;;;;;;;;;;;7.65;62.50;99629.80;67505;1282;1016451;-71
2024/02/01 00:47:04;;;;;;;;;;;;;;;7.61;62.16;99620.55;67514;1282;1016351;-71
2024/02/01 00:50:06;;;;;;;;;;;;;;;7.54;62.30;99617.51;67546;1282;1016365;-72
2024/02/01 00:53:09;;;;;;;;;;;;;;;7.51;62.55;99616.17;67521;1282;1016357;-71
2024/02/01 00:56:11;;;;;;;;;;;;;;;7.43;62.84;99607.27;67504;1282;1016399;-70
2024/02/01 00:59:13;;;;;;;;;;;;;;;7.39;63.38;99606.71;67509;1282;1016452;-72
2024/02/01 01:02:16;;;;;;;;;;;;;;;7.35;63.79;99592.58;67529;1282;1016346;-72
2024/02/01 01:05:18;;;;;;;;;;;;;;;7.18;64.59;99583.79;67548;1282;1016399;-72
2024/02/01 01:08:21;;;;;;;;;;;;;;;7.31;64.34;99579.33;67508;1282;1016058;-72
2024/02/01 01:11:25;;;;;;;;;;;;;;;7.33;64.41;99569.52;67509;1282;1016487;-72
2024/02/01 01:14:28;;;;;;;;;;;;;;;7.07;65.27;99563.48;67548;1282;1016895;-72
2024/02/01 01:17:30;;;;;;;;;;;;;;;7.13;65.13;99559.08;67538;1282;1015616;-72
2024/02/01 01:20:33;;;;;;;;;;;;;;;7.09;65.54;99557.13;67506;1282;1016076;-71
2024/02/01 01:23:36;;;;;;;;;;;;;;;6.96;67.35;99554.63;67518;1282;1016434;-72
2024/02/01 01:26:38;;;;;;;;;;;;;;;7.08;68.00;99549.70;67559;1282;1016484;-72
2024/02/01 01:29:40;;;;;;;;;;;;;;;7.16;68.40;99541.26;67565;1282;1017179;-71
2024/02/01 01:32:43;;;;;;;;;;;;;;;7.37;68.00;99528.48;67529;1282;1016018;-72
2024/02/01 01:35:45;;;;;;;;;;;;;;;7.32;68.63;99518.06;67521;1282;1016389;-71
2024/02/01 01:38:48;;;;;;;;;;;;;;;7.44;68.57;99517.80;67520;1282;1016444;-71
2024/02/01 01:41:50;;;;;;;;;;;;;;;7.40;69.44;99519.14;67576;1282;1016500;-70
2024/02/01 01:44:53;;;;;;;;;;;;;;;7.48;69.38;99516.59;67502;1282;1016366;-71
2024/02/01 01:47:56;;;;;;;;;;;;;;;7.40;70.47;99506.10;67509;1282;1018879;-69
2024/02/01 01:50:58;;;;;;;;;;;;;;;7.53;70.30;99501.96;67541;1282;1016276;-71
2024/02/01 01:54:01;;;;;;;;;;;;;;;7.43;71.48;99495.20;67558;1282;1016466;-71
2024/02/01 01:57:03;;;;;;;;;;;;;;;7.44;71.73;99486.30;67537;1282;1016113;-72
2024/02/01 02:00:07;;;;;;;;;;;;;;;7.42;71.59;99475.56;67504;1282;1016024;-72
2024/02/01 02:03:10;;;;;;;;;;;;;;;7.48;71.56;99470.14;67525;1282;1016183;-72
2024/02/01 02:06:13;;;;;;;;;;;;;;;7.50;72.11;99459.43;67550;1282;1016490;-71
2024/02/01 02:09:16;;;;;;;;;;;;;;;7.60;71.29;99453.48;67534;1282;1016437;-72
2024/02/01 02:12:18;;;;;;;;;;;;;;;7.61;71.52;99451.70;67485;1282;1018154;-72
2024/02/01 02:15:21;;;;;;;;;;;;;;;7.92;69.42;99451.35;67568;1282;1017755;-72
2024/02/01 02:18:24;;;;;;;;;;;;;;;7.95;69.17;99451.59;67515;1282;1016486;-72
2024/02/01 02:21:27;;;;;;;;;;;;;;;7.76;70.31;99449.75;67566;1282;1016524;-72
2024/02/01 02:24:30;;;;;;;;;;;;;;;7.74;70.46;99449.80;67569;1282;1016086;-72
2024/02/01 02:27:33;;;;;;;;;;;;;;;7.75;70.67;99446.30;67544;1282;1016453;-72
2024/02/01 02:30:35;;;;;;;;;;;;;;;7.77;70.24;99441.70;67561;1282;1016385;-71
2024/02/01 02:33:38;;;;;;;;;;;;;;;7.77;70.52;99442.05;67495;1282;1015710;-71
2024/02/01 02:36:41;;;;;;;;;;;;;;;7.80;70.06;99436.18;67573;1282;1016869;-71
2024/02/01 02:39:43;;;;;;;;;;;;;;;7.63;70.95;99434.90;67579;1282;1016441;-72
2024/02/01 02:42:46;;;;;;;;;;;;;;;7.64;71.08;99441.30;67531;1282;1016426;-71
2024/02/01 02:45:48;;;;;;;;;;;;;;;7.67;71.15;99441.20;67530;1282;1019658;-71
2024/02/01 02:48:51;;;;;;;;;;;;;;;7.70;70.37;99436.39;67553;1282;1016456;-71
2024/02/01 02:51:54;;;;;;;;;;;;;;;7.76;70.36;99430.05;67525;1282;1016275;-72
2024/02/01 02:54:57;;;;;;;;;;;;;;;7.73;70.42;99429.64;67533;1282;1016426;-69
2024/02/01 02:58:00;;;;;;;;;;;;;;;7.74;70.37;99431.36;67569;1282;1016184;-72
2024/02/01 03:01:05;;;;;;;;;;;;;;;7.53;71.81;99426.79;67520;1282;1016585;-71
2024/02/01 03:04:08;;;;;;;;;;;;;;;7.57;71.56;99427.65;67525;1282;1018397;-70
2024/02/01 03:07:11;;;;;;;;;;;;;;;7.62;71.17;99426.10;67539;1282;1016371;-71
2024/02/01 03:10:15;;;;;;;;;;;;;;;7.78;70.40;99424.40;67583;1282;1016330;-71
2024/02/01 03:13:18;;;;;;;;;;;;;;;7.83;70.11;99422.12;67570;1282;1016273;-71
2024/02/01 03:16:20;;;;;;;;;;;;;;;7.85;69.94;99415.41;67520;1282;1016491;-71
2024/02/01 03:19:23;;;;;;;;;;;;;;;7.93;69.67;99411.43;67520;1282;1016446;-71
2024/02/01 03:22:25;;;;;;;;;;;;;;;7.94;69.53;99421.16;67564;1282;1016448;-71
2024/02/01 03:25:31;;;;;;;;;;;;;;;7.96;69.23;99418.81;67584;1282;1016504;-71
2024/02/01 03:28:33;;;;;;;;;;;;;;;8.05;68.41;99411.14;67602;1282;1016419;-71
2024/02/01 03:31:36;;;;;;;;;;;;;;;7.94;68.86;99407.58;67522;1282;1016431;-70
2024/02/01 03:34:41;;;;;;;;;;;;;;;7.87;69.22;99412.73;67538;1282;1017009;-71
2024/02/01 03:37:44;;;;;;;;;;;;;;;7.92;68.96;99404.67;67508;1282;1019302;-72
2024/02/01 03:40:47;;;;;;;;;;;;;;;7.96;68.49;99395.85;65062;1281;5391329;-70
2024/02/01 03:43:49;;;;;;;;;;;;;;;8.07;67.87;99389.27;67546;1282;1016387;-71
2024/02/01 03:46:53;;;;;;;;;;;;;;;8.03;67.98;99384.73;67599;1282;1018078;-70
2024/02/01 03:49:56;;;;;;;;;;;;;;;7.78;69.33;99371.82;67581;1282;1016188;-69
2024/02/01 03:52:59;;;;;;;;;;;;;;;7.80;69.66;99372.46;67542;1282;1016551;-71
2024/02/01 03:56:03;;;;;;;;;;;;;;;7.71;70.34;99370.05;67584;1282;1016439;-71
2024/02/01 03:59:14;;;;;;;;;;;;;;;7.72;70.09;99367.38;67566;1282;1016491;-71
2024/02/01 04:02:16;;;;;;;;;;;;;;;7.62;70.90;99368.80;67568;1282;1016501;-72
2024/02/01 04:05:19;;;;;;;;;;;;;;;7.59;71.20;99362.84;67587;1282;1016422;-70
2024/02/01 04:08:21;;;;;;;;;;;;;;;7.64;70.88;99360.21;67521;1282;1016387;-70
2024/02/01 04:11:24;;;;;;;;;;;;;;;7.57;71.78;99361.18;67518;1282;1016847;-71
2024/02/01 04:14:27;;;;;;;;;;;;;;;7.67;71.36;99368.25;67549;1282;1016306;-71
2024/02/01 04:17:30;;;;;;;;;;;;;;;7.50;72.45;99373.65;67585;1282;1016399;-69
2024/02/01 04:20:32;;;;;;;;;;;;;;;7.41;73.28;99361.11;67604;1282;1016663;-71
2024/02/01 04:23:35;;;;;;;;;;;;;;;7.53;72.66;99351.80;67551;1282;1016300;-71
2024/02/01 04:26:38;;;;;;;;;;;;;;;7.44;73.18;99348.29;67542;1282;1016463;-72
2024/02/01 04:29:41;;;;;;;;;;;;;;;7.33;73.79;99344.02;67569;1282;1016483;-71
2024/02/01 04:32:43;;;;;;;;;;;;;;;7.34;73.13;99344.55;67564;1282;1016484;-69
2024/02/01 04:35:45;;;;;;;;;;;;;;;7.31;72.34;99338.21;67528;1282;1016269;-72
2024/02/01 04:38:49;;;;;;;;;;;;;;;7.21;72.78;99340.33;67534;1282;1016532;-72
2024/02/01 04:41:57;;;;;;;;;;;;;;;7.31;71.49;99340.64;67531;1282;1016058;-72
2024/02/01 04:45:04;;;;;;;;;;;;;;;7.38;70.69;99338.65;67532;1282;1016530;-71
2024/02/01 04:48:10;;;;;;;;;;;;;;;7.44;69.59;99331.77;67601;1282;1016500;-71
2024/02/01 04:51:12;;;;;;;;;;;;;;;7.52;69.25;99326.96;67545;1282;1016432;-72
2024/02/01 04:54:16;;;;;;;;;;;;;;;7.45;69.37;99318.83;67542;1282;1016416;-71
2024/02/01 04:57:18;;;;;;;;;;;;;;;7.47;69.26;99313.90;67534;1282;1016234;-71
2024/02/01 05:00:21;;;;;;;;;;;;;;;7.52;68.84;99309.88;67562;1282;1016455;-71
2024/02/01 05:03:23;;;;;;;;;;;;;;;7.60;68.25;99308.31;67537;1282;1016395;-71
2024/02/01 05:06:26;;;;;;;;;;;;;;;7.45;68.65;99302.16;67546;1282;1016472;-71
2024/02/01 05:09:32;;;;;;;;;;;;;;;7.57;68.07;99296.08;67540;1282;1016455;-69
2024/02/01 05:12:35;;;;;;;;;;;;;;;7.17;70.21;99290.92;67517;1282;1016480;-72
2024/02/01 05:15:38;;;;;;;;;;;;;;;7.14;70.17;99291.38;67588;1282;1017029;-71
2024/02/01 05:18:40;;;;;;;;;;;;;;;7.12;70.27;99291.12;67566;1282;1016134;-71
2024/02/01 05:21:43;;;;;;;;;;;;;;;7.16;69.90;99295.48;67551;1282;1016403;-70
2024/02/01 05:24:45;;;;;;;;;;;;;;;7.18;69.39;99294.89;67543;1282;1016368;-71
2024/02/01 05:27:50;;;;;;;;;;;;;;;7.04;69.73;99300.29;67568;1282;1016614;-69
2024/02/01 05:30:53;;;;;;;;;;;;;;;7.02;69.88;99291.30;67529;1282;1016353;-71
2024/02/01 05:33:56;;;;;;;;;;;;;;;6.99;70.14;99293.37;67566;1282;1016840;-71
2024/02/01 05:36:58;;;;;;;;;;;;;;;6.97;70.09;99291.33;67579;1282;1017364;-71
2024/02/01 05:40:01;;;;;;;;;;;;;;;6.93;70.05;99286.45;67597;1282;1016026;-72
2024/02/01 05:43:03;;;;;;;;;;;;;;;6.89;70.25;99284.36;67532;1282;1016189;-72
2024/02/01 05:46:06;;;;;;;;;;;;;;;6.76;71.10;99280.83;67537;1282;1016240;-71
2024/02/01 05:49:08;;;;;;;;;;;;;;;6.79;70.98;99277.42;67575;1282;1017083;-72
2024/02/01 05:52:11;;;;;;;;;;;;;;;6.73;71.20;99269.30;67550;1282;1016405;-71
2024/02/01 05:55:14;;;;;;;;;;;;;;;6.67;72.08;99267.30;67523;1282;1016771;-71
2024/02/01 05:58:17;;;;;;;;;;;;;;;6.65;72.31;99267.86;67548;1282;1016393;-71
2024/02/01 06:01:19;;;;;;;;;;;;;;;6.41;74.52;99265.27;67518;1282;1016586;-71
2024/02/01 06:04:22;;;;;;;;;;;;;;;6.69;72.49;99264.05;67501;1282;1016400;-72
2024/02/01 06:07:25;;;;;;;;;;;;;;;6.75;72.22;99265.24;67570;1282;1016067;-72
2024/02/01 06:10:27;;;;;;;;;;;;;;;6.84;71.96;99263.52;67510;1282;1016282;-71
2024/02/01 06:13:30;;;;;;;;;;;;;;;6.74;72.60;99266.14;67514;1282;1016271;-71
2024/02/01 06:16:32;;;;;;;;;;;;;;;6.93;71.69;99263.32;67535;1282;1016454;-71
2024/02/01 06:19:35;;;;;;;;;;;;;;;7.20;69.99;99269.08;67556;1282;1017604;-71
2024/02/01 06:22:37;;;;;;;;;;;;;;;7.17;69.90;99257.86;67570;1282;1015945;-72
2024/02/01 06:25:40;;;;;;;;;;;;;;;7.29;69.21;99263.83;67538;1282;1016295;-71
2024/02/01 06:28:42;;;;;;;;;;;;;;;7.23;69.57;99264.58;67543;1282;1016251;-72
2024/02/01 06:31:45;;;;;;;;;;;;;;;7.24;69.83;99269.77;67578;1282;1015960;-71
2024/02/01 06:34:54;;;;;;;;;;;;;;;7.21;70.62;99267.98;67543;1282;1016123;-72
2024/02/01 06:38:04;;;;;;;;;;;;;;;7.22;70.91;99267.40;67536;1282;1016368;-72
2024/02/01 06:41:17;;;;;;;;;;;;;;;7.22;71.22;99268.63;67567;1282;1018110;-70
2024/02/01 06:44:24;;;;;;;;;;;;;;;7.12;71.92;99264.15;67545;1282;1016489;-71
2024/02/01 06:47:36;;;;;;;;;;;;;;;7.16;71.70;99265.73;67581;1282;1016432;-71
2024/02/01 06:50:54;;;;;;;;;;;;;;;7.24;71.34;99260.03;67548;1282;1016471;-72
2024/02/01 06:53:57;;;;;;;;;;;;;;;7.29;71.20;99255.29;67562;1282;1016442;-72
2024/02/01 06:57:13;;;;;;;;;;;;;;;7.31;71.48;99247.76;67586;1282;1016032;-72
2024/02/01 07:00:40;;;;;;;;;;;;;;;7.54;70.58;99245.03;67564;1282;1018589;-71
2024/02/01 07:03:51;;;;;;;;;;;;;;;7.60;70.43;99239.23;67564;1282;1016368;-71
2024/02/01 07:07:18;;;;;;;;;;;;;;;7.67;70.25;99238.63;67559;1282;1016151;-71
2024/02/01 07:10:32;;;;;;;;;;;;;;;7.81;69.67;99235.73;67584;1282;1016432;-71
2024/02/01 07:13:47;;;;;;;;;;;;;;;7.99;68.53;99231.50;67531;1282;1015865;-71
2024/02/01 07:17:05;;;;;;;;;;;;;;;8.13;67.99;99227.02;67563;1282;1016222;-72
2024/02/01 07:20:14;;;;;;;;;;;;;;;8.23;67.28;99227.30;67531;1282;1016442;-71
2024/02/01 07:23:38;;;;;;;;;;;;;;;8.24;66.93;99230.88;67531;1282;1016462;-71
2024/02/01 07:26:43;;;;;;;;;;;;;;;8.30;66.62;99228.74;67508;1282;1016504;-73
2024/02/01 07:59:48;;;;;;;;;;;;;;;8.73;65.33;99242.64;67534;1282;1016431;-74
2024/02/01 08:02:52;;;;;;;;;;;;;;;8.81;65.24;99233.54;67537;1282;1016537;-73
2024/02/01 08:09:16;;;;;;;;;;;;;;;9.13;64.68;99227.84;67553;1282;1018229;-73
2024/02/01 08:12:20;;;;;;;;;;;;;;;9.28;63.54;99230.27;67551;1282;1016052;-73
2024/02/01 08:15:22;;;;;;;;;;;;;;;9.24;63.12;99230.27;67539;1282;1016825;-71
2024/02/01 08:18:26;;;;;;;;;;;;;;;9.11;63.73;99224.44;67551;1282;1016412;-72
2024/02/01 08:21:32;;;;;;;;;;;;;;;9.10;63.66;99230.23;67574;1282;1016492;-73
2024/02/01 08:24:34;;;;;;;;;;;;;;;9.07;63.77;99235.14;67532;1282;1016737;-73
2024/02/01 08:27:37;;;;;;;;;;;;;;;9.15;63.56;99234.58;67534;1282;1016395;-72
2024/02/01 08:30:39;;;;;;;;;;;;;;;9.10;63.90;99235.48;67578;1282;1016349;-73
2024/02/01 08:33:44;;;;;;;;;;;;;;;9.17;63.43;99236.17;67598;1282;1016263;-73
2024/02/01 08:36:47;;;;;;;;;;;;;;;9.25;63.60;99235.66;67555;1282;1019051;-73
2024/02/01 08:39:50;;;;;;;;;;;;;;;9.24;63.47;99240.91;67564;1282;1016498;-70
2024/02/01 08:42:57;;;;;;;;;;;;;;;9.24;63.41;99241.23;67578;1282;1016487;-69
2024/02/01 08:46:00;;;;;;;;;;;;;;;9.34;63.52;99239.90;67555;1282;1016459;-70
2024/02/01 08:49:03;;;;;;;;;;;;;;;9.30;63.25;99246.20;67548;1282;1016229;-70
2024/02/01 08:52:06;;;;;;;;;;;;;;;9.32;63.63;99249.08;67578;1282;1016292;-70
2024/02/01 08:55:10;;;;;;;;;;;;;;;9.49;63.40;99253.48;67588;1282;1016489;-70
2024/02/01 08:58:16;;;;;;;;;;;;;;;9.34;63.73;99256.46;67567;1282;1016294;-70
2024/02/01 09:01:24;;;;;;;;;;;;;;;9.31;64.49;99263.60;67534;1282;1016476;-71
2024/02/01 09:04:27;;;;;;;;;;;;;;;9.37;65.09;99263.48;67571;1282;1016565;-70
2024/02/01 09:07:34;;;;;;;;;;;;;;;9.35;64.83;99280.85;67540;1282;1016510;-71
2024/02/01 09:10:37;;;;;;;;;;;;;;;9.40;65.12;99271.02;67562;1282;1016420;-70
2024/02/01 09:13:43;;;;;;;;;;;;;;;9.42;66.16;99275.48;67576;1282;1016224;-70
2024/02/01 09:16:46;;;;;;;;;;;;;;;9.32;67.13;99274.73;67517;1282;1016408;-71
2024/02/01 09:19:48;;;;;;;;;;;;;;;9.40;67.69;99276.42;67578;1282;1016482;-71
2024/02/01 09:22:51;;;;;;;;;;;;;;;9.37;67.61;99283.39;67578;1282;1016236;-70
2024/02/01 09:25:54;;;;;;;;;;;;;;;9.39;68.69;99280.15;67572;1282;1015790;-70
2024/02/01 09:28:57;;;;;;;;;;;;;;;9.16;69.87;99277.60;67558;1282;1016483;-70
2024/02/01 09:31:59;;;;;;;;;;;;;;;9.01;71.17;99270.95;67571;1282;1016355;-71
2024/02/01 09:35:02;;;;;;;;;;;;;;;8.95;72.27;99280.66;67529;1282;1016335;-70
2024/02/01 09:38:04;;;;;;;;;;;;;;;9.00;72.78;99269.10;67561;1282;1016530;-70
2024/02/01 09:41:15;;;;;;;;;;;;;;;9.01;73.20;99267.83;67568;1282;1016201;-71
2024/02/01 09:44:32;;;;;;;;;;;;;;;9.04;73.65;99266.13;67568;1282;1016592;-71
2024/02/01 09:47:43;;;;;;;;;;;;;;;8.97;74.15;99265.92;67603;1282;1017271;-71
2024/02/01 09:50:59;;;;;;;;;;;;;;;8.83;75.12;99271.63;67586;1282;1016557;-71
2024/02/01 09:54:01;;;;;;;;;;;;;;;8.78;76.06;99268.92;67550;1282;1017154;-71
2024/02/01 09:57:14;;;;;;;;;;;;;;;8.75;76.20;99265.73;67534;1282;1016277;-71
2024/02/01 10:00:27;;;;;;;;;;;;;;;9.02;74.94;99261.70;67587;1282;1016864;-71
2024/02/01 10:03:30;;;;;;;;;;;;;;;9.01;74.90;99256.16;67541;1282;1016340;-70
2024/02/01 10:06:37;;;;;;;;;;;;;;;8.99;75.23;99254.85;67533;1282;1017123;-71
2024/02/01 10:09:40;;;;;;;;;;;;;;;8.82;76.35;99255.27;67609;1282;1016204;-69
2024/02/01 10:12:43;;;;;;;;;;;;;;;8.75;77.82;99247.25;67600;1282;1016239;-71
2024/02/01 10:15:45;;;;;;;;;;;;;;;8.72;78.47;99246.73;67549;1282;1016446;-71
2024/02/01 10:18:53;;;;;;;;;;;;;;;8.65;79.74;99245.77;67547;1282;1016466;-67
2024/02/01 10:21:59;;;;;;;;;;;;;;;8.78;79.90;99242.59;67592;1282;1016437;-70
2024/02/01 10:25:03;;;;;;;;;;;;;;;8.84;79.83;99237.96;67556;1282;1017784;-71
2024/02/01 10:28:07;;;;;;;;;;;;;;;8.72;80.82;99242.34;67577;1282;1016190;-71
2024/02/01 10:31:10;;;;;;;;;;;;;;;8.88;80.02;99239.50;67557;1282;1018653;-71
2024/02/01 10:34:13;;;;;;;;;;;;;;;8.94;80.14;99231.71;67595;1282;1016489;-70
2024/02/01 10:37:16;;;;;;;;;;;;;;;9.03;79.70;99230.07;67530;1282;1016437;-71
2024/02/01 10:40:18;;;;;;;;;;;;;;;9.11;79.18;99227.25;67573;1282;1016498;-71
2024/02/01 10:43:21;;;;;;;;;;;;;;;9.05;79.11;99230.66;67585;1282;1016514;-70
2024/02/01 10:46:27;;;;;;;;;;;;;;;9.02;80.29;99226.45;67600;1282;1016493;-69
2024/02/01 10:49:30;;;;;;;;;;;;;;;9.04;80.38;99224.27;67592;1282;1016063;-70
2024/02/01 10:52:33;;;;;;;;;;;;;;;8.97;81.48;99222.52;67544;1282;1016483;-70
2024/02/01 10:55:36;;;;;;;;;;;;;;;9.03;81.89;99218.03;67568;1282;1018281;-68
2024/02/01 10:58:39;;;;;;;;;;;;;;;9.00;82.18;99218.85;67534;1282;1016299;-71
2024/02/01 11:01:43;;;;;;;;;;;;;;;9.18;81.30;99221.29;67569;1282;1016503;-70
2024/02/01 11:04:48;;;;;;;;;;;;;;;8.84;84.64;99219.64;67549;1282;1016919;-71
2024/02/01 11:07:51;;;;;;;;;;;;;;;9.01;83.66;99214.83;67579;1282;1016244;-71
2024/02/01 11:10:54;;;;;;;;;;;;;;;8.96;84.76;99217.51;67596;1282;1016298;-70
2024/02/01 11:13:56;;;;;;;;;;;;;;;9.05;83.87;99213.77;67568;1282;1018305;-71
2024/02/01 11:16:59;;;;;;;;;;;;;;;9.10;83.66;99214.03;67562;1282;1016698;-71
2024/02/01 11:20:04;;;;;;;;;;;;;;;9.09;84.09;99210.91;67565;1282;1016629;-71
2024/02/01 11:23:07;;;;;;;;;;;;;;;9.05;84.45;99210.09;67584;1282;1016249;-70
2024/02/01 11:26:15;;;;;;;;;;;;;;;9.10;85.09;99204.80;67580;1282;1016326;-71
2024/02/01 11:29:17;;;;;;;;;;;;;;;9.24;84.16;99211.80;67579;1282;1016517;-71
2024/02/01 11:32:20;;;;;;;;;;;;;;;9.28;84.14;99207.40;67534;1282;1016255;-71
2024/02/01 11:35:24;;;;;;;;;;;;;;;9.10;85.71;99209.29;67560;1282;1016201;-71
2024/02/01 11:38:28;;;;;;;;;;;;;;;9.19;86.15;99212.35;67551;1282;1016249;-71
2024/02/01 11:41:32;;;;;;;;;;;;;;;9.29;85.44;99202.08;67572;1282;1016264;-71
2024/02/01 11:44:35;;;;;;;;;;;;;;;9.46;83.74;99203.22;67541;1282;1016402;-71
2024/02/01 11:47:39;;;;;;;;;;;;;;;9.47;84.32;99194.24;67549;1282;1016399;-71
2024/02/01 11:50:41;;;;;;;;;;;;;;;9.52;85.04;99196.58;67565;1282;1016334;-66
2024/02/01 11:53:44;;;;;;;;;;;;;;;9.64;83.95;99189.14;67588;1282;1016455;-71
2024/02/01 11:56:46;;;;;;;;;;;;;;;9.76;83.44;99182.08;67564;1282;1016449;-71
2024/02/01 11:59:49;;;;;;;;;;;;;;;9.92;82.49;99184.93;67548;1282;1016408;-70
2024/02/01 12:02:51;;;;;;;;;;;;;;;9.98;82.14;99181.87;67553;1282;1016085;-71
2024/02/01 12:05:54;;;;;;;;;;;;;;;9.95;82.87;99183.41;67594;1282;1016446;-70
2024/02/01 12:08:59;;;;;;;;;;;;;;;9.93;83.46;99183.48;67561;1282;1016387;-70
2024/02/01 12:12:02;;;;;;;;;;;;;;;9.94;83.63;99180.46;67579;1282;1016528;-71
2024/02/01 12:15:05;;;;;;;;;;;;;;;9.97;83.72;99179.45;67592;1282;1016493;-71
2024/02/01 12:18:10;;;;;;;;;;;;;;;9.89;85.26;99177.43;67529;1282;1016446;-70
2024/02/01 12:21:13;;;;;;;;;;;;;;;9.95;84.46;99176.92;67556;1282;1016336;-72
2024/02/01 12:24:17;;;;;;;;;;;;;;;9.83;84.74;99180.34;67587;1282;1016373;-71
2024/02/01 12:27:20;;;;;;;;;;;;;;;9.87;84.04;99176.98;67591;1282;1016447;-71
2024/02/01 12:30:26;;;;;;;;;;;;;;;9.87;84.48;99176.83;67578;1282;1016178;-71
2024/02/01 12:33:28;;;;;;;;;;;;;;;9.67;86.71;99181.86;67614;1282;1015718;-70
2024/02/01 12:36:31;;;;;;;;;;;;;;;9.67;87.27;99185.04;67589;1282;1019980;-71
2024/02/01 12:39:37;;;;;;;;;;;;;;;9.67;87.52;99178.03;67572;1282;1016408;-71
2024/02/01 12:42:40;;;;;;;;;;;;;;;9.57;88.54;99173.30;67543;1282;1016417;-71
2024/02/01 12:45:46;;;;;;;;;;;;;;;9.64;88.76;99178.87;67568;1282;1016443;-71
2024/02/01 12:48:48;;;;;;;;;;;;;;;9.61;89.53;99177.79;67567;1282;1016217;-71
2024/02/01 12:51:53;;;;;;;;;;;;;;;9.61;89.98;99175.38;67560;1282;1016447;-71
2024/02/01 12:54:59;;;;;;;;;;;;;;;9.72;89.16;99172.89;67527;1282;1016285;-71
2024/02/01 12:58:02;;;;;;;;;;;;;;;9.68;89.22;99188.27;67514;1282;1018146;-71
2024/02/01 13:01:05;;;;;;;;;;;;;;;9.63;90.52;99190.63;67560;1282;1016496;-70
2024/02/01 13:04:07;;;;;;;;;;;;;;;9.62;91.47;99186.14;67567;1282;1016244;-70
2024/02/01 13:07:11;;;;;;;;;;;;;;;9.71;91.13;99181.16;67532;1282;1018293;-71
2024/02/01 13:10:15;;;;;;;;;;;;;;;9.82;90.75;99180.58;67522;1282;1016522;-71
2024/02/01 13:13:18;;;;;;;;;;;;;;;9.91;89.67;99182.41;67529;1282;1018541;-71
2024/02/01 13:16:20;;;;;;;;;;;;;;;9.92;89.15;99179.19;67530;1282;1016501;-71
2024/02/01 13:19:23;;;;;;;;;;;;;;;10.21;86.75;99185.88;67555;1282;1016475;-71
2024/02/01 13:22:26;;;;;;;;;;;;;;;10.54;82.53;99186.23;67592;1282;1016492;-71
2024/02/01 13:25:28;;;;;;;;;;;;;;;10.59;81.19;99186.95;67510;1282;1016260;-71
2024/02/01 13:28:31;;;;;;;;;;;;;;;10.60;80.66;99196.39;67560;1282;1016964;-71
2024/02/01 13:31:38;;;;;;;;;;;;;;;10.64;80.48;99189.36;67546;1282;1016379;-72
2024/02/01 13:34:41;;;;;;;;;;;;;;;10.54;80.74;99196.32;67544;1282;1016255;-71
2024/02/01 13:37:46;;;;;;;;;;;;;;;10.56;80.64;99198.55;67561;1282;1016425;-71
2024/02/01 13:40:49;;;;;;;;;;;;;;;10.41;82.24;99191.11;67532;1282;1018285;-71
2024/02/01 13:43:51;;;;;;;;;;;;;;;10.20;84.10;99189.59;67566;1282;1016111;-72
2024/02/01 13:46:54;;;;;;;;;;;;;;;10.24;83.62;99193.40;67517;1282;1016095;-71
2024/02/01 13:49:57;;;;;;;;;;;;;;;10.31;83.48;99191.79;67513;1282;1016283;-70
2024/02/01 13:53:00;;;;;;;;;;;;;;;10.28;83.60;99199.64;67557;1282;1016279;-71
2024/02/01 13:56:03;;;;;;;;;;;;;;;10.22;84.44;99200.12;67513;1282;1016447;-76
2024/02/01 13:59:05;;;;;;;;;;;;;;;10.26;83.81;99210.04;67571;1282;1019439;-71
2024/02/01 14:02:08;;;;;;;;;;;;;;;10.27;83.18;99211.59;67549;1282;1016018;-71
2024/02/01 14:05:11;;;;;;;;;;;;;;;10.12;85.09;99219.71;67529;1282;1016944;-71
2024/02/01 14:08:13;;;;;;;;;;;;;;;10.14;85.41;99210.34;67563;1282;1019970;-71
2024/02/01 14:11:16;;;;;;;;;;;;;;;10.03;86.21;99219.66;67563;1282;1016448;-70
2024/02/01 14:14:18;;;;;;;;;;;;;;;10.08;84.56;99214.02;67514;1282;1016469;-70
2024/02/01 14:17:21;;;;;;;;;;;;;;;10.14;84.45;99208.45;67550;1282;1018017;-71
2024/02/01 14:20:23;;;;;;;;;;;;;;;10.28;83.01;99207.50;67560;1282;1018308;-71
2024/02/01 14:23:27;;;;;;;;;;;;;;;10.20;82.38;99208.45;67570;1282;1016326;-70
2024/02/01 14:26:31;;;;;;;;;;;;;;;10.21;81.63;99210.67;67557;1282;1016650;-71
2024/02/01 14:29:34;;;;;;;;;;;;;;;10.09;80.63;99216.36;67537;1282;1016427;-71
2024/02/01 14:32:37;;;;;;;;;;;;;;;10.12;79.11;99214.64;67552;1282;1016506;-71
2024/02/01 14:35:39;;;;;;;;;;;;;;;10.28;78.27;99211.36;67552;1282;1017429;-71
2024/02/01 14:38:42;;;;;;;;;;;;;;;10.44;76.23;99211.77;67556;1282;1016436;-71
2024/02/01 14:41:45;;;;;;;;;;;;;;;10.66;74.76;99210.55;67524;1282;1016901;-70
2024/02/01 14:44:47;;;;;;;;;;;;;;;10.59;74.03;99219.49;67518;1282;1016304;-70
2024/02/01 14:47:50;;;;;;;;;;;;;;;10.57;74.35;99218.94;67597;1282;1016787;-70
2024/02/01 14:50:52;;;;;;;;;;;;;;;10.59;72.90;99224.04;67600;1282;1016584;-68
2024/02/01 14:53:55;;;;;;;;;;;;;;;10.41;72.83;99232.17;67503;1282;1015915;-71
2024/02/01 14:56:57;;;;;;;;;;;;;;;10.33;73.36;99233.48;67538;1282;1018140;-70
2024/02/01 15:00:00;;;;;;;;;;;;;;;10.24;74.13;99246.72;67589;1282;1016523;-71
2024/02/01 15:03:05;;;;;;;;;;;;;;;10.14;75.28;99248.09;67539;1282;1016438;-71
2024/02/01 15:06:08;;;;;;;;;;;;;;;10.15;74.86;99249.79;67578;1282;1016442;-71
2024/02/01 15:09:11;;;;;;;;;;;;;;;10.05;74.56;99258.70;67574;1282;1017976;-71
2024/02/01 15:12:13;;;;;;;;;;;;;;;10.07;74.28;99254.92;67544;1282;1016420;-70
2024/02/01 15:15:20;;;;;;;;;;;;;;;9.84;75.35;99259.05;67586;1282;1016446;-70
2024/02/01 15:18:24;;;;;;;;;;;;;;;9.74;76.12;99261.33;67547;1282;1016459;-70
2024/02/01 15:21:30;;;;;;;;;;;;;;;10.01;74.24;99265.36;67522;1282;1016447;-71
2024/02/01 15:24:33;;;;;;;;;;;;;;;10.11;73.01;99260.33;67519;1282;1016158;-71
2024/02/01 15:27:36;;;;;;;;;;;;;;;10.06;73.16;99259.85;67517;1282;1016489;-68
2024/02/01 15:30:39;;;;;;;;;;;;;;;10.12;72.34;99264.59;67585;1282;1016503;-70
2024/02/01 15:33:44;;;;;;;;;;;;;;;10.20;70.93;99257.38;67527;1282;1016486;-69
2024/02/01 15:36:46;;;;;;;;;;;;;;;10.30;70.00;99256.02;67554;1282;1016408;-71
2024/02/01 15:39:49;;;;;;;;;;;;;;;10.24;69.47;99256.64;65026;1281;6369045;-71
2024/02/01 15:42:51;;;;;;;;;;;;;;;10.12;69.44;99262.18;67557;1282;1016466;-69
2024/02/01 15:45:55;;;;;;;;;;;;;;;9.95;70.38;99262.02;67533;1282;1016490;-71
2024/02/01 15:49:00;;;;;;;;;;;;;;;9.91;70.13;99265.90;67531;1282;1015954;-71
2024/02/01 15:52:04;;;;;;;;;;;;;;;9.81;70.42;99265.88;67506;1282;1016766;-69
2024/02/01 15:55:06;;;;;;;;;;;;;;;9.76;70.45;99270.14;67555;1282;1016372;-71
2024/02/01 15:58:11;;;;;;;;;;;;;;;9.67;70.86;99274.23;67549;1282;1016422;-71
2024/02/01 16:01:14;;;;;;;;;;;;;;;9.64;70.87;99284.17;67540;1282;1018414;-71
2024/02/01 16:04:16;;;;;;;;;;;;;;;9.68;70.39;99290.79;67539;1282;1015982;-71
2024/02/01 16:07:18;;;;;;;;;;;;;;;9.65;70.17;99293.04;67576;1282;1016442;-71
2024/02/01 16:10:21;;;;;;;;;;;;;;;9.53;70.93;99297.11;67584;1282;1016415;-71
2024/02/01 16:13:24;;;;;;;;;;;;;;;9.46;71.46;99303.04;67560;1282;1015935;-71
2024/02/01 16:16:26;;;;;;;;;;;;;;;9.28;72.38;99302.86;67515;1282;1016399;-69